Time;durP1;ratioP1;P1;durP2;ratioP2;P2;SDS_P1;SDS_P2;PMS_P1;PMS_P2;Temp;Humidity;BMP_temperature;BMP_pressure;BME280_temperature;BME280_humidity;BME280_pressure;Samples;Min_cycle;Max_cycle;Signal;HPM_P1;HPM_P2
2022/06/04 00:00:27;;;;;;;3.65;0.50;;;15.00;85.70;;;;;;4995475;28;20106;-88
2022/06/04 00:02:54;;;;;;;1.67;0.50;;;15.00;86.00;;;;;;4974162;28;20022;-86
2022/06/04 00:05:23;;;;;;;2.60;0.50;;;14.90;86.40;;;;;;4969019;28;20030;-87
2022/06/04 00:07:50;;;;;;;3.30;0.60;;;14.90;86.90;;;;;;4963921;28;20189;-87
2022/06/04 00:15:52;;;;;;;1.67;0.43;;;14.70;88.10;;;;;;4979623;28;20107;-88
2022/06/04 00:18:20;;;;;;;4.53;0.50;;;14.60;88.60;;;;;;4974221;28;20030;-87
2022/06/04 00:20:46;;;;;;;2.00;0.63;;;14.50;89.10;;;;;;4970484;28;20034;-87
2022/06/04 00:23:13;;;;;;;1.92;0.60;;;14.50;89.60;;;;;;4978391;28;20451;-87
2022/06/04 00:25:42;;;;;;;4.60;0.57;;;14.40;90.00;;;;;;4974067;28;20026;-87
2022/06/04 00:28:09;;;;;;;1.83;0.50;;;14.40;90.30;;;;;;4968942;28;20026;-88
2022/06/04 00:30:36;;;;;;;2.55;0.70;;;14.30;90.50;;;;;;4994143;28;20046;-87
2022/06/04 00:33:01;;;;;;;1.65;0.60;;;14.20;90.80;;;;;;4983091;28;20027;-87
2022/06/04 00:35:28;;;;;;;2.88;0.60;;;14.20;91.10;;;;;;4965213;28;20475;-87
2022/06/04 00:37:53;;;;;;;2.05;0.70;;;14.10;91.40;;;;;;4972752;28;20027;-87
2022/06/04 00:41:01;;;;;;;5.50;0.80;;;14.00;91.90;;;;;;4969991;28;20030;-87
2022/06/04 00:43:26;;;;;;;2.00;0.70;;;14.00;92.40;;;;;;4966107;28;20114;-86
2022/06/04 00:46:30;;;;;;;3.00;0.60;;;13.90;92.90;;;;;;4968166;28;20611;-86
2022/06/04 00:48:55;;;;;;;2.75;0.95;;;13.80;93.30;;;;;;4976394;28;20411;-87
2022/06/04 00:51:23;;;;;;;4.43;0.70;;;13.80;93.70;;;;;;4978241;28;20045;-87
2022/06/04 00:53:49;;;;;;;3.13;0.70;;;13.80;94.10;;;;;;4965064;28;20125;-87
2022/06/04 00:56:39;;;;;;;4.22;1.02;;;13.80;94.30;;;;;;4958965;28;20057;-87
2022/06/04 00:59:38;;;;;;;1.52;0.60;;;13.80;94.70;;;;;;4965094;28;20125;-88
2022/06/04 01:02:19;;;;;;;2.30;0.80;;;13.80;95.10;;;;;;4984793;28;20049;-87
2022/06/04 01:05:13;;;;;;;3.33;0.65;;;13.80;95.40;;;;;;4992111;28;20386;-87
2022/06/04 01:08:10;;;;;;;1.88;0.70;;;13.80;95.40;;;;;;4962118;28;20022;-87
2022/06/04 01:10:50;;;;;;;2.13;0.70;;;13.80;95.50;;;;;;4972457;28;20041;-88
2022/06/04 01:13:35;;;;;;;4.00;0.80;;;13.80;95.80;;;;;;4965421;28;20475;-88
2022/06/04 01:16:26;;;;;;;2.95;0.70;;;13.90;95.80;;;;;;4964844;28;20026;-87
2022/06/04 01:19:29;;;;;;;2.60;0.57;;;13.90;95.90;;;;;;4968841;28;20034;-87
2022/06/04 01:22:39;;;;;;;4.35;0.80;;;13.90;95.90;;;;;;4976538;28;20064;-87
2022/06/04 01:25:19;;;;;;;2.50;0.60;;;13.90;95.90;;;;;;4904345;28;20097;-87
2022/06/04 01:27:58;;;;;;;3.05;0.68;;;13.90;95.80;;;;;;4973986;28;20093;-88
2022/06/04 01:30:35;;;;;;;1.77;0.60;;;13.90;95.70;;;;;;4977138;28;20027;-87
2022/06/04 01:33:24;;;;;;;4.95;0.75;;;14.00;95.50;;;;;;4958375;28;20042;-87
2022/06/04 01:35:58;;;;;;;3.25;0.55;;;14.00;95.40;;;;;;4971746;28;20048;-88
2022/06/04 01:38:36;;;;;;;3.08;0.60;;;14.00;95.30;;;;;;4964737;28;20086;-88
2022/06/04 01:41:33;;;;;;;3.33;0.68;;;14.00;95.20;;;;;;4964068;28;20141;-87
2022/06/04 01:44:08;;;;;;;1.77;0.65;;;14.00;95.00;;;;;;4956355;28;20127;-88
2022/06/04 01:46:40;;;;;;;2.33;0.75;;;14.00;95.00;;;;;;4971030;28;20031;-88
2022/06/04 01:49:21;;;;;;;;;;;14.00;95.00;;;;;;4976192;28;20053;-87
2022/06/04 01:51:50;;;;;;;3.47;0.82;;;14.00;95.00;;;;;;4964863;28;20342;-87
2022/06/04 01:54:31;;;;;;;3.88;1.00;;;13.90;95.00;;;;;;4976599;28;20026;-89
2022/06/04 01:57:01;;;;;;;3.88;0.98;;;13.90;94.90;;;;;;4966536;28;20032;-87
2022/06/04 01:59:39;;;;;;;5.55;0.60;;;13.90;94.90;;;;;;4971330;28;20030;-88
2022/06/04 02:02:13;;;;;;;1.55;0.68;;;13.90;94.80;;;;;;4991007;28;20121;-87
2022/06/04 02:04:41;;;;;;;2.67;0.80;;;13.90;94.80;;;;;;4976984;28;20390;-89
2022/06/04 02:07:30;;;;;;;4.03;0.90;;;13.80;94.80;;;;;;4974614;28;20034;-88
2022/06/04 02:10:04;;;;;;;2.13;0.77;;;13.90;94.90;;;;;;4961395;28;20026;-88
2022/06/04 02:12:33;;;;;;;1.60;0.65;;;13.80;94.90;;;;;;4967958;28;20022;-87
2022/06/04 02:15:00;;;;;;;3.22;1.00;;;13.80;95.00;;;;;;4973825;28;20085;-87
2022/06/04 02:17:27;;;;;;;3.28;0.95;;;13.80;95.20;;;;;;4968304;28;20033;-86
2022/06/04 02:19:52;;;;;;;3.38;0.90;;;13.80;95.40;;;;;;4966267;28;20077;-88
2022/06/04 02:22:18;;;;;;;2.45;0.77;;;13.80;95.70;;;;;;4977340;28;20026;-88
2022/06/04 02:24:44;;;;;;;3.22;0.95;;;13.70;95.80;;;;;;4976856;28;20022;-87
2022/06/04 02:27:10;;;;;;;3.65;0.98;;;13.70;96.00;;;;;;4986514;28;20081;-87
2022/06/04 02:29:37;;;;;;;2.00;0.95;;;13.70;96.20;;;;;;4975026;28;20023;-87
2022/06/04 02:32:21;;;;;;;4.60;1.00;;;13.70;96.40;;;;;;4959407;28;20030;-87
2022/06/04 02:35:16;;;;;;;2.47;1.23;;;13.60;96.50;;;;;;4976205;28;20418;-87
2022/06/04 02:37:45;;;;;;;3.10;1.13;;;13.60;96.70;;;;;;4985922;28;20077;-88
2022/06/04 02:40:26;;;;;;;3.78;1.20;;;13.60;97.10;;;;;;4981562;28;20435;-87
2022/06/04 02:43:04;;;;;;;4.25;2.08;;;13.60;97.20;;;;;;4983336;28;20035;-87
2022/06/04 02:46:04;;;;;;;4.15;1.80;;;13.50;97.20;;;;;;4964502;28;20186;-88
2022/06/04 02:48:46;;;;;;;3.25;1.10;;;13.60;97.30;;;;;;4958732;28;20069;-87
2022/06/04 02:51:19;;;;;;;2.60;1.20;;;13.60;97.50;;;;;;4975890;28;20068;-89
2022/06/04 02:53:46;;;;;;;3.70;1.13;;;13.50;97.50;;;;;;4956721;28;20053;-88
2022/06/04 02:56:16;;;;;;;4.45;1.33;;;13.50;97.80;;;;;;4972905;28;20030;-87
2022/06/04 02:58:46;;;;;;;3.53;1.45;;;13.50;98.00;;;;;;4976394;28;20390;-88
2022/06/04 03:01:13;;;;;;;4.93;1.33;;;13.50;98.10;;;;;;4975515;28;20038;-87
2022/06/04 03:03:40;;;;;;;5.97;2.10;;;13.40;98.30;;;;;;4975878;28;20144;-87
2022/06/04 03:06:08;;;;;;;4.15;1.40;;;13.40;98.50;;;;;;4962942;28;20022;-87
2022/06/04 03:08:40;;;;;;;6.88;1.70;;;13.40;98.70;;;;;;4974619;28;20080;-87
2022/06/04 03:11:06;;;;;;;3.58;1.35;;;13.40;98.80;;;;;;4956607;28;20019;-88
2022/06/04 03:13:31;;;;;;;4.43;1.40;;;13.40;98.90;;;;;;4967644;28;20034;-87
2022/06/04 03:15:57;;;;;;;4.55;1.50;;;13.40;99.30;;;;;;4960344;28;20383;-88
2022/06/04 03:18:23;;;;;;;6.03;1.67;;;13.40;99.40;;;;;;4975003;28;20034;-88
2022/06/04 03:20:48;;;;;;;2.35;1.23;;;13.40;99.60;;;;;;4975686;28;20030;-88
2022/06/04 03:23:15;;;;;;;4.65;1.40;;;13.40;99.80;;;;;;4964563;28;20034;-87
2022/06/04 03:25:40;;;;;;;6.50;1.80;;;13.40;99.90;;;;;;4963035;28;20407;-87
2022/06/04 03:28:07;;;;;;;5.22;1.52;;;13.30;99.90;;;;;;4974288;28;20029;-87
2022/06/04 03:30:35;;;;;;;3.67;1.40;;;13.40;99.90;;;;;;4974953;28;20041;-88
2022/06/04 03:33:01;;;;;;;4.93;1.48;;;13.30;99.90;;;;;;4960814;28;20026;-87
2022/06/04 03:35:28;;;;;;;4.97;1.63;;;13.30;99.90;;;;;;4969552;28;20030;-87
2022/06/04 03:37:53;;;;;;;3.60;1.58;;;13.30;99.90;;;;;;4958152;28;20114;-86
2022/06/04 03:40:19;;;;;;;3.70;1.65;;;13.30;99.90;;;;;;4961602;28;20113;-87
2022/06/04 03:42:45;;;;;;;5.88;2.22;;;13.30;99.90;;;;;;4973476;28;20027;-87
2022/06/04 03:45:12;;;;;;;5.50;1.60;;;13.40;99.90;;;;;;4960960;28;20031;-87
2022/06/04 03:47:37;;;;;;;5.13;1.83;;;13.40;99.90;;;;;;4987530;28;20088;-86
2022/06/04 03:50:10;;;;;;;7.57;2.30;;;13.30;99.90;;;;;;4972146;28;20018;-87
2022/06/04 03:52:36;;;;;;;4.50;1.75;;;13.40;99.90;;;;;;4974816;28;20051;-87
2022/06/04 03:55:05;;;;;;;6.38;2.03;;;13.40;99.90;;;;;;4960501;28;20062;-85
2022/06/04 03:57:38;;;;;;;5.07;1.98;;;13.40;99.90;;;;;;4968955;28;20031;-87
2022/06/04 04:00:09;;;;;;;7.13;2.42;;;13.40;99.90;;;;;;4961269;28;20125;-86
2022/06/04 04:02:34;;;;;;;5.18;1.98;;;13.40;99.90;;;;;;4980957;28;20050;-87
2022/06/04 04:05:00;;;;;;;5.32;1.90;;;13.40;99.90;;;;;;4972018;28;20057;-87
2022/06/04 04:07:26;;;;;;;6.25;2.00;;;13.50;99.90;;;;;;4975276;28;20023;-86
2022/06/04 04:09:51;;;;;;;8.65;2.22;;;13.50;99.90;;;;;;4973952;28;20041;-87
2022/06/04 04:12:17;;;;;;;6.90;2.22;;;13.50;99.90;;;;;;4965568;28;20047;-87
2022/06/04 04:14:42;;;;;;;8.98;3.00;;;13.50;99.90;;;;;;4956348;28;20395;-87
2022/06/04 04:17:09;;;;;;;5.65;2.17;;;13.50;99.90;;;;;;4959733;28;20019;-88
2022/06/04 04:19:35;;;;;;;10.82;2.65;;;13.50;99.90;;;;;;4959124;28;20072;-87
2022/06/04 04:22:01;;;;;;;8.88;2.17;;;13.50;99.90;;;;;;4976729;28;20038;-88
2022/06/04 04:24:27;;;;;;;3.50;1.55;;;13.50;99.90;;;;;;4961830;28;20227;-87
2022/06/04 04:26:53;;;;;;;6.75;2.30;;;13.40;99.90;;;;;;4956315;28;20138;-88
2022/06/04 04:29:19;;;;;;;6.47;2.55;;;13.50;99.90;;;;;;4965374;28;20034;-87
2022/06/04 04:31:44;;;;;;;5.55;2.30;;;13.40;99.90;;;;;;4966259;28;20023;-87
2022/06/04 04:34:10;;;;;;;7.28;2.70;;;13.50;99.90;;;;;;4959727;28;20037;-87
2022/06/04 04:36:35;;;;;;;6.93;2.17;;;13.50;99.90;;;;;;4975134;28;20022;-87
2022/06/04 04:39:01;;;;;;;9.30;2.45;;;13.50;99.90;;;;;;4966316;28;20514;-87
2022/06/04 04:41:27;;;;;;;9.18;3.13;;;13.50;99.90;;;;;;4963793;28;20386;-87
2022/06/04 04:43:52;;;;;;;6.85;2.58;;;13.50;99.90;;;;;;4977185;28;20179;-87
2022/06/04 04:46:19;;;;;;;4.25;2.58;;;13.50;99.90;;;;;;4978435;28;20030;-87
2022/06/04 04:48:46;;;;;;;6.35;3.13;;;13.50;99.90;;;;;;4977804;28;20036;-87
2022/06/04 04:51:19;;;;;;;5.45;2.75;;;13.50;99.90;;;;;;4988758;28;20033;-87
2022/06/04 04:53:46;;;;;;;7.93;2.80;;;13.60;99.90;;;;;;4965280;28;20510;-87
2022/06/04 04:56:15;;;;;;;8.02;2.63;;;13.50;99.90;;;;;;4959433;28;20491;-87
2022/06/04 04:58:40;;;;;;;6.93;2.95;;;13.60;99.90;;;;;;4970630;28;20023;-88
2022/06/04 05:01:16;;;;;;;6.78;2.50;;;13.60;99.90;;;;;;4962778;28;20034;-87
2022/06/04 05:03:44;;;;;;;8.73;2.58;;;13.60;99.90;;;;;;4972666;28;20026;-88
2022/06/04 05:06:11;;;;;;;7.53;2.92;;;13.70;99.90;;;;;;4961513;28;20438;-88
2022/06/04 05:08:37;;;;;;;7.03;3.22;;;13.70;99.90;;;;;;4975677;28;20038;-87
2022/06/04 05:11:18;;;;;;;8.15;3.33;;;13.80;99.90;;;;;;4975061;28;20033;-88
2022/06/04 05:13:49;;;;;;;4.10;2.63;;;13.80;99.90;;;;;;4965937;28;20049;-87
2022/06/04 05:16:18;;;;;;;7.05;3.10;;;13.80;99.90;;;;;;4960315;28;20038;-87
2022/06/04 05:18:44;;;;;;;8.07;3.97;;;13.80;99.90;;;;;;4978025;28;20053;-87
2022/06/04 05:21:17;;;;;;;6.53;3.30;;;13.90;99.90;;;;;;4976257;28;20061;-88
2022/06/04 05:23:42;;;;;;;7.75;3.90;;;13.90;99.90;;;;;;4970223;28;20467;-88
2022/06/04 05:26:08;;;;;;;7.15;3.15;;;13.90;99.90;;;;;;4985227;28;20085;-86
2022/06/04 05:28:33;;;;;;;11.10;3.22;;;14.00;99.90;;;;;;4958465;28;20023;-87
2022/06/04 05:30:59;;;;;;;6.88;3.45;;;14.00;99.90;;;;;;4970457;28;20117;-87
2022/06/04 05:33:24;;;;;;;6.07;3.70;;;13.90;99.90;;;;;;4994851;28;20050;-88
2022/06/04 05:35:50;;;;;;;9.18;4.30;;;14.00;99.90;;;;;;4988991;28;20033;-88
2022/06/04 05:38:15;;;;;;;6.22;3.53;;;14.00;99.90;;;;;;4962259;28;20558;-88
2022/06/04 05:40:41;;;;;;;6.10;3.20;;;14.00;99.90;;;;;;4958266;28;20041;-87
2022/06/04 05:43:06;;;;;;;6.25;3.72;;;14.00;99.90;;;;;;4984559;28;20561;-88
2022/06/04 05:45:32;;;;;;;7.43;3.47;;;14.00;99.90;;;;;;4977189;28;20471;-88
2022/06/04 05:47:58;;;;;;;9.18;4.35;;;14.00;99.90;;;;;;4973287;28;20113;-88
2022/06/04 05:50:23;;;;;;;8.55;4.03;;;14.10;99.90;;;;;;4967030;28;20472;-87
2022/06/04 05:52:49;;;;;;;7.10;4.28;;;14.10;99.90;;;;;;4971026;28;20054;-88
2022/06/04 05:55:14;;;;;;;7.15;3.72;;;14.10;99.90;;;;;;4980902;28;20070;-87
2022/06/04 05:57:40;;;;;;;8.02;3.88;;;14.10;99.90;;;;;;4957569;28;20114;-86
2022/06/04 06:00:08;;;;;;;8.05;4.25;;;14.10;99.90;;;;;;4978670;28;20053;-88
2022/06/04 06:02:35;;;;;;;11.85;4.07;;;14.10;99.90;;;;;;4988124;28;20030;-87
2022/06/04 06:05:02;;;;;;;8.63;4.18;;;14.10;99.90;;;;;;4958406;28;20027;-88
2022/06/04 06:07:27;;;;;;;7.35;4.22;;;14.30;99.90;;;;;;4967618;28;20298;-87
2022/06/04 06:09:53;;;;;;;11.27;3.72;;;14.20;99.90;;;;;;4972167;28;20441;-87
2022/06/04 06:12:18;;;;;;;7.95;4.32;;;14.30;99.90;;;;;;4975576;28;20501;-87
2022/06/04 06:14:44;;;;;;;8.77;4.15;;;14.40;99.90;;;;;;4994047;28;20030;-86
2022/06/04 06:17:09;;;;;;;7.85;4.10;;;14.40;99.90;;;;;;4977028;28;20031;-87
2022/06/04 06:19:35;;;;;;;11.40;3.75;;;14.50;99.90;;;;;;4988463;28;20179;-87
2022/06/04 06:22:00;;;;;;;10.98;4.10;;;14.60;99.90;;;;;;4962432;28;20398;-87
2022/06/04 06:24:26;;;;;;;7.95;3.58;;;14.70;99.90;;;;;;4977837;28;20494;-86
2022/06/04 06:26:54;;;;;;;7.20;3.80;;;14.80;99.90;;;;;;4976851;28;20031;-88
2022/06/04 06:29:23;;;;;;;6.47;3.83;;;14.90;99.90;;;;;;4973527;28;20028;-88
2022/06/04 06:31:49;;;;;;;8.02;4.32;;;15.00;99.90;;;;;;4972147;28;20025;-87
2022/06/04 06:34:15;;;;;;;5.78;3.72;;;15.00;99.90;;;;;;4976668;28;20026;-88
2022/06/04 06:36:42;;;;;;;8.30;3.80;;;15.10;99.90;;;;;;4976435;28;20033;-87
2022/06/04 06:39:08;;;;;;;6.88;3.60;;;15.00;99.90;;;;;;4962703;28;20082;-87
2022/06/04 06:41:34;;;;;;;7.85;3.97;;;15.00;99.90;;;;;;4957915;28;20522;-88
2022/06/04 06:43:59;;;;;;;7.90;3.60;;;15.10;99.90;;;;;;4976978;28;20046;-88
2022/06/04 06:46:28;;;;;;;8.45;4.80;;;15.10;99.90;;;;;;4977012;28;20142;-87
2022/06/04 06:49:04;;;;;;;8.30;4.50;;;15.10;99.90;;;;;;4975318;28;20027;-88
2022/06/04 06:51:40;;;;;;;11.35;5.47;;;15.10;99.90;;;;;;4964405;28;20052;-87
2022/06/04 06:54:06;;;;;;;6.72;3.78;;;15.10;99.90;;;;;;4983793;28;20089;-88
2022/06/04 06:56:34;;;;;;;9.45;5.00;;;15.00;99.90;;;;;;4959874;28;20058;-87
2022/06/04 06:59:02;;;;;;;9.88;4.15;;;15.10;99.90;;;;;;4968878;28;20029;-87
2022/06/04 07:01:28;;;;;;;10.88;5.00;;;15.10;99.90;;;;;;4992309;28;20042;-88
2022/06/04 07:03:55;;;;;;;8.48;4.30;;;15.20;99.90;;;;;;4987488;28;20061;-87
2022/06/04 07:06:31;;;;;;;7.55;3.42;;;15.20;99.90;;;;;;4964402;28;20054;-88
2022/06/04 07:08:57;;;;;;;9.90;5.07;;;15.30;99.90;;;;;;4957273;28;20092;-86
2022/06/04 07:11:23;;;;;;;8.27;5.00;;;15.30;99.90;;;;;;4994006;28;20030;-86
2022/06/04 07:13:49;;;;;;;6.93;4.22;;;15.30;99.90;;;;;;4992826;28;20033;-87
2022/06/04 07:16:14;;;;;;;7.55;4.00;;;15.30;99.90;;;;;;4986485;28;20038;-88
2022/06/04 07:18:40;;;;;;;7.55;4.30;;;15.30;99.90;;;;;;4989378;28;20026;-87
2022/06/04 07:21:06;;;;;;;8.30;4.30;;;15.30;99.90;;;;;;4975740;28;20034;-87
2022/06/04 07:23:34;;;;;;;6.20;3.95;;;15.40;99.90;;;;;;4976518;28;20025;-88
2022/06/04 07:26:04;;;;;;;6.90;3.70;;;15.50;99.90;;;;;;4975645;28;20042;-87
2022/06/04 07:28:29;;;;;;;7.60;4.40;;;15.60;99.90;;;;;;4976036;28;20026;-87
2022/06/04 07:30:56;;;;;;;7.38;4.00;;;15.70;99.90;;;;;;4975482;28;20026;-87
2022/06/04 07:33:22;;;;;;;8.95;4.43;;;15.80;99.90;;;;;;4976169;28;20109;-87
2022/06/04 07:35:48;;;;;;;9.82;3.80;;;15.80;99.90;;;;;;4976035;28;20030;-88
2022/06/04 07:38:14;;;;;;;10.15;4.28;;;15.90;99.90;;;;;;4976173;28;20028;-88
2022/06/04 07:40:40;;;;;;;8.05;4.20;;;15.90;99.90;;;;;;4975883;28;20046;-87
2022/06/04 07:43:06;;;;;;;7.10;3.85;;;15.90;99.90;;;;;;4976065;28;20022;-87
2022/06/04 07:45:34;;;;;;;7.07;3.33;;;16.00;99.90;;;;;;4971332;28;20037;-87
2022/06/04 07:48:00;;;;;;;9.88;3.85;;;16.10;99.90;;;;;;4956677;28;20019;-87
2022/06/04 07:50:25;;;;;;;11.98;4.32;;;16.20;99.90;;;;;;4969956;28;20034;-87
2022/06/04 07:52:51;;;;;;;9.00;3.90;;;16.30;99.90;;;;;;4975859;28;20166;-88
2022/06/04 07:55:17;;;;;;;7.53;3.83;;;16.30;99.90;;;;;;4976465;28;20169;-88
2022/06/04 07:57:43;;;;;;;8.65;4.18;;;16.30;99.90;;;;;;4993207;28;20042;-87
2022/06/04 08:00:09;;;;;;;9.07;3.75;;;16.30;99.90;;;;;;4970445;28;20026;-87
2022/06/04 08:02:35;;;;;;;7.30;3.80;;;16.20;99.90;;;;;;4975977;28;20034;-87
2022/06/04 08:05:01;;;;;;;6.90;3.60;;;16.20;99.90;;;;;;4975686;28;20023;-87
2022/06/04 08:07:27;;;;;;;6.03;4.05;;;16.10;99.90;;;;;;4968000;28;20119;-89
2022/06/04 08:09:53;;;;;;;8.27;4.20;;;16.10;99.90;;;;;;4965930;28;20479;-87
2022/06/04 08:12:19;;;;;;;9.50;4.13;;;16.10;99.90;;;;;;4975982;28;20026;-87
2022/06/04 08:14:48;;;;;;;6.60;3.55;;;16.20;99.90;;;;;;4975607;28;20045;-88
2022/06/04 08:17:14;;;;;;;8.63;3.65;;;16.30;99.90;;;;;;4976133;28;20045;-87
2022/06/04 08:19:40;;;;;;;8.18;3.55;;;16.30;99.90;;;;;;4970386;28;20471;-88
2022/06/04 08:22:06;;;;;;;6.43;4.25;;;16.40;99.90;;;;;;4959725;28;20041;-88
2022/06/04 08:24:32;;;;;;;7.63;3.80;;;16.40;99.90;;;;;;4960296;28;20023;-87
2022/06/04 08:26:59;;;;;;;7.00;3.42;;;16.40;99.90;;;;;;4960598;28;20049;-87
2022/06/04 08:29:28;;;;;;;6.32;3.88;;;16.40;99.90;;;;;;4992026;28;20031;-88
2022/06/04 08:31:53;;;;;;;8.32;3.92;;;16.50;99.90;;;;;;4978671;28;20393;-87
2022/06/04 08:34:20;;;;;;;7.65;4.03;;;16.60;99.90;;;;;;4979641;28;20117;-88
2022/06/04 08:36:46;;;;;;;7.15;4.10;;;16.70;99.90;;;;;;4979252;28;20077;-87
2022/06/04 08:39:12;;;;;;;6.15;3.72;;;16.70;99.90;;;;;;4993813;28;20026;-88
2022/06/04 08:41:57;;;;;;;8.45;4.57;;;16.90;99.90;;;;;;4969947;28;20554;-87
2022/06/04 08:44:36;;;;;;;5.63;3.70;;;16.90;99.70;;;;;;4973287;28;20058;-89
2022/06/04 08:47:26;;;;;;;8.80;3.85;;;17.00;99.70;;;;;;4959754;28;20038;-87
2022/06/04 08:49:57;;;;;;;6.90;4.00;;;17.20;99.60;;;;;;4976598;28;20031;-87
2022/06/04 08:52:38;;;;;;;10.05;4.63;;;17.30;99.60;;;;;;4959578;28;20047;-86
2022/06/04 08:58:45;;;;;;;7.15;3.58;;;17.90;98.90;;;;;;4987326;28;20068;-87
2022/06/04 09:01:28;;;;;;;8.38;4.10;;;18.30;98.40;;;;;;4978664;28;20046;-87
2022/06/04 09:04:24;;;;;;;7.68;4.18;;;18.80;97.90;;;;;;4995924;28;20030;-86
2022/06/04 09:07:15;;;;;;;8.23;3.85;;;19.10;96.70;;;;;;4978580;28;20031;-86
2022/06/04 09:10:00;;;;;;;8.02;4.53;;;19.30;95.50;;;;;;4959517;28;20522;-87
2022/06/04 09:12:29;;;;;;;7.10;4.50;;;19.20;94.60;;;;;;4991817;28;20030;-86
2022/06/04 09:15:03;;;;;;;6.13;3.55;;;19.10;94.40;;;;;;4991343;28;20023;-86
2022/06/04 09:17:45;;;;;;;7.43;4.13;;;19.10;94.70;;;;;;4969735;28;20514;-87
2022/06/04 09:20:36;;;;;;;9.70;3.75;;;19.10;94.40;;;;;;4978201;28;20125;-86
2022/06/04 09:23:16;;;;;;;7.03;3.22;;;19.10;94.30;;;;;;4978141;28;20372;-87
2022/06/04 09:26:04;;;;;;;6.28;3.65;;;19.30;94.90;;;;;;4978079;28;20058;-87
2022/06/04 09:29:10;;;;;;;7.13;4.20;;;19.50;94.30;;;;;;4977558;28;20521;-87
2022/06/04 09:31:50;;;;;;;6.32;4.20;;;19.60;93.30;;;;;;4969856;28;20077;-87
2022/06/04 09:34:39;;;;;;;6.88;3.40;;;19.50;93.20;;;;;;4991090;28;20041;-87
2022/06/04 09:37:08;;;;;;;8.50;3.45;;;19.60;93.40;;;;;;4976078;28;20044;-86
2022/06/04 09:39:40;;;;;;;6.60;4.03;;;19.80;93.00;;;;;;4964816;28;20026;-86
2022/06/04 09:42:22;;;;;;;6.95;3.55;;;20.00;92.70;;;;;;4995352;28;20063;-87
2022/06/04 09:44:57;;;;;;;5.90;4.07;;;20.20;92.70;;;;;;4993550;28;20479;-88
2022/06/04 09:47:40;;;;;;;4.45;3.03;;;20.20;91.50;;;;;;4986751;28;20041;-87
2022/06/04 09:50:37;;;;;;;6.63;3.63;;;20.20;91.50;;;;;;4977998;28;20056;-87
2022/06/04 09:53:11;;;;;;;9.13;3.67;;;20.20;91.60;;;;;;4977019;28;20046;-88
2022/06/04 09:55:44;;;;;;;8.48;4.30;;;20.20;91.40;;;;;;4977816;28;20057;-87
2022/06/04 09:58:20;;;;;;;;;;;20.30;91.20;;;;;;4994665;28;20030;-88
2022/06/04 10:01:07;;;;;;;5.65;3.10;;;20.20;91.30;;;;;;4992922;28;20289;-87
2022/06/04 10:03:36;;;;;;;5.97;3.13;;;20.30;91.20;;;;;;4970698;28;20023;-87
2022/06/04 10:06:28;;;;;;;9.00;4.47;;;20.40;91.20;;;;;;4966152;28;20038;-86
2022/06/04 10:11:54;;;;;;;6.90;3.60;;;20.60;91.00;;;;;;4993106;28;20403;-86
2022/06/04 10:14:31;;;;;;;7.20;3.30;;;20.70;90.80;;;;;;4977309;28;20118;-88
2022/06/04 10:16:58;;;;;;;7.68;3.92;;;20.80;90.70;;;;;;4974145;28;20125;-87
2022/06/04 10:19:25;;;;;;;9.75;4.13;;;20.80;90.40;;;;;;4958284;28;20372;-87
2022/06/04 10:22:12;;;;;;;6.82;3.70;;;21.00;90.20;;;;;;4957544;28;20088;-87
2022/06/04 10:24:51;;;;;;;5.40;2.78;;;21.20;90.10;;;;;;4975152;28;20042;-88
2022/06/04 10:27:22;;;;;;;6.07;3.03;;;21.40;90.10;;;;;;4961351;28;20041;-86
2022/06/04 10:30:06;;;;;;;6.45;3.78;;;21.60;89.60;;;;;;4980997;28;20030;-87
2022/06/04 10:32:53;;;;;;;18.50;4.75;;;21.70;86.80;;;;;;4990245;28;20027;-87
2022/06/04 10:35:55;;;;;;;5.25;3.25;;;21.60;86.90;;;;;;4993686;28;20044;-87
2022/06/04 10:38:41;;;;;;;7.00;3.67;;;21.60;86.60;;;;;;4980292;28;20031;-88
2022/06/04 10:41:26;;;;;;;7.85;3.78;;;21.50;86.20;;;;;;4928442;28;20063;-86
2022/06/04 10:44:01;;;;;;;7.32;3.63;;;21.50;85.30;;;;;;4974781;28;20055;-87
2022/06/04 10:46:56;;;;;;;6.45;3.22;;;21.60;85.20;;;;;;4993406;28;20026;-87
2022/06/04 10:49:37;;;;;;;9.13;4.03;;;21.60;84.90;;;;;;4965839;28;20030;-86
2022/06/04 10:52:21;;;;;;;6.22;3.15;;;21.70;84.30;;;;;;4989962;28;20046;-87
2022/06/04 10:55:07;;;;;;;4.63;2.55;;;21.80;84.20;;;;;;4957559;28;20026;-87
2022/06/04 10:57:43;;;;;;;7.07;3.20;;;22.00;84.50;;;;;;4963926;28;20022;-88
2022/06/04 11:00:19;;;;;;;4.25;2.92;;;22.30;83.20;;;;;;4972013;28;20036;-87
2022/06/04 11:03:19;;;;;;;7.70;3.58;;;22.50;82.00;;;;;;4993691;28;20031;-87
2022/06/04 11:05:49;;;;;;;5.85;3.25;;;22.40;81.10;;;;;;4970053;28;20035;-86
2022/06/04 11:08:20;;;;;;;6.45;3.60;;;22.30;80.50;;;;;;4994069;28;20066;-87
2022/06/04 11:11:08;;;;;;;4.78;2.65;;;22.10;80.70;;;;;;4976337;28;20026;-87
2022/06/04 11:13:48;;;;;;;4.30;2.65;;;22.20;80.90;;;;;;4991759;28;20038;-87
2022/06/04 11:16:23;;;;;;;8.00;3.30;;;22.30;80.60;;;;;;4976598;28;20117;-86
2022/06/04 11:19:12;;;;;;;6.07;3.42;;;22.40;80.00;;;;;;4976054;28;20023;-87
2022/06/04 11:21:56;;;;;;;7.28;3.58;;;22.50;79.50;;;;;;4963273;28;20042;-87
2022/06/04 11:24:34;;;;;;;5.10;3.00;;;22.50;78.90;;;;;;4993581;28;20030;-87
2022/06/04 11:27:12;;;;;;;5.18;2.92;;;22.60;78.60;;;;;;4990102;28;20467;-87
2022/06/04 11:29:39;;;;;;;5.82;3.05;;;22.60;78.40;;;;;;4957107;28;20117;-87
2022/06/04 11:32:22;;;;;;;5.95;3.22;;;22.70;78.10;;;;;;4956910;28;20034;-87
2022/06/04 11:34:53;;;;;;;4.68;2.80;;;22.90;77.80;;;;;;4992031;28;20080;-87
2022/06/04 11:37:34;;;;;;;7.97;2.90;;;23.00;77.10;;;;;;4973123;28;20474;-87
2022/06/04 11:40:33;;;;;;;5.80;2.72;;;23.10;76.70;;;;;;4987277;28;20392;-87
2022/06/04 11:43:01;;;;;;;5.53;2.45;;;23.30;76.50;;;;;;4975939;28;21091;-87
2022/06/04 11:45:32;;;;;;;5.85;3.75;;;23.30;75.60;;;;;;4972191;28;20030;-87
2022/06/04 11:48:15;;;;;;;5.22;3.63;;;23.20;75.50;;;;;;4956637;28;20027;-86
2022/06/04 11:50:50;;;;;;;5.60;2.80;;;23.20;74.80;;;;;;4972299;28;20491;-86
2022/06/04 11:53:55;;;;;;;4.65;2.28;;;23.00;75.20;;;;;;4979591;28;20109;-87
2022/06/04 11:56:46;;;;;;;7.07;2.75;;;23.10;76.20;;;;;;4969666;28;20038;-87
2022/06/04 11:59:14;;;;;;;4.75;2.90;;;23.20;75.70;;;;;;4978144;28;20147;-86
2022/06/04 12:01:45;;;;;;;5.70;2.25;;;23.20;75.30;;;;;;4992714;28;20031;-87
2022/06/04 12:04:29;;;;;;;4.15;2.50;;;23.30;75.60;;;;;;4976619;28;20434;-87
2022/06/04 12:07:28;;;;;;;5.80;3.22;;;23.40;75.50;;;;;;4979500;28;20084;-87
2022/06/04 12:10:10;;;;;;;5.53;3.88;;;23.50;74.40;;;;;;4973820;28;20034;-87
2022/06/04 12:13:09;;;;;;;4.88;2.88;;;23.50;73.60;;;;;;4979915;28;20084;-87
2022/06/04 12:15:43;;;;;;;4.45;3.08;;;23.40;73.60;;;;;;4940148;28;20121;-87
2022/06/04 12:18:27;;;;;;;6.57;2.70;;;23.30;73.60;;;;;;4983457;28;20027;-87
2022/06/04 12:24:15;;;;;;;4.38;2.10;;;23.50;73.70;;;;;;4996451;28;20036;-88
2022/06/04 12:26:44;;;;;;;5.15;2.88;;;23.50;73.50;;;;;;4961666;28;20402;-87
2022/06/04 12:29:23;;;;;;;5.75;3.15;;;23.60;73.20;;;;;;4977595;28;20034;-87
2022/06/04 12:31:56;;;;;;;4.63;2.63;;;23.80;72.00;;;;;;4965774;28;20031;-86
2022/06/04 12:34:30;;;;;;;6.93;3.22;;;23.50;71.40;;;;;;4975307;28;20018;-87
2022/06/04 12:36:57;;;;;;;6.88;3.10;;;23.30;71.50;;;;;;4968426;28;20037;-88
2022/06/04 12:39:29;;;;;;;5.25;3.00;;;23.00;72.00;;;;;;4980035;28;20023;-87
2022/06/04 12:41:59;;;;;;;3.22;2.20;;;22.90;72.50;;;;;;4969525;28;20085;-87
2022/06/04 12:44:32;;;;;;;5.30;2.35;;;22.80;72.80;;;;;;4959977;28;20027;-87
2022/06/04 12:47:25;;;;;;;3.70;1.98;;;22.80;73.90;;;;;;4975751;28;20092;-87
2022/06/04 12:49:58;;;;;;;3.58;2.45;;;23.00;73.40;;;;;;4978665;28;20029;-87
2022/06/04 12:52:48;;;;;;;4.38;3.00;;;23.10;73.70;;;;;;4977713;28;20077;-88
2022/06/04 12:55:30;;;;;;;4.10;2.45;;;23.30;72.60;;;;;;4969725;28;20087;-86
2022/06/04 12:58:01;;;;;;;4.85;2.00;;;23.20;72.30;;;;;;4970492;28;20117;-86
2022/06/04 13:00:31;;;;;;;4.63;2.28;;;23.20;72.80;;;;;;4964173;28;20188;-86
2022/06/04 13:02:59;;;;;;;3.70;2.33;;;23.30;72.70;;;;;;4995522;28;20097;-87
2022/06/04 13:05:26;;;;;;;5.07;3.03;;;23.40;71.90;;;;;;4963106;28;20471;-87
2022/06/04 13:08:10;;;;;;;4.65;2.60;;;23.40;71.70;;;;;;4987002;28;20022;-87
2022/06/04 13:11:01;;;;;;;5.18;2.55;;;23.40;72.00;;;;;;4972952;28;20030;-87
2022/06/04 13:14:06;;;;;;;4.30;2.27;;;23.50;71.90;;;;;;4959868;28;20069;-87
2022/06/04 13:16:34;;;;;;;6.22;2.25;;;23.60;71.00;;;;;;4959595;28;20055;-87
2022/06/04 13:19:03;;;;;;;4.72;2.40;;;23.60;72.00;;;;;;4958945;28;20027;-87
2022/06/04 13:21:29;;;;;;;3.33;2.08;;;23.80;71.70;;;;;;4963941;28;20042;-87
2022/06/04 13:24:03;;;;;;;4.53;2.17;;;24.00;70.80;;;;;;4995712;28;20073;-87
2022/06/04 13:26:31;;;;;;;3.33;2.55;;;24.00;70.20;;;;;;4974357;28;20447;-88
2022/06/04 13:28:58;;;;;;;11.23;2.75;;;23.90;70.30;;;;;;4969589;28;20026;-88
2022/06/04 13:31:28;;;;;;;13.85;2.40;;;23.90;70.50;;;;;;4978421;28;20057;-87
2022/06/04 13:33:55;;;;;;;4.18;2.60;;;24.00;70.70;;;;;;4978240;28;20034;-87